Nova Crixas, Brazil
Current Conditions -  °F | °C
As of 2:00 AM on Tuesday 23 Dec 2014 (Local Time) from SBAN Reporting Station
Scattered Clouds Scattered Clouds  
Wind Chill: 64°   Ceiling: Unl
Heat Index: 64°   Visibility: 6mi
Dew Point: 63°   Wind: 0mph
Humidity: 94%   Direction: NA
Pressure: 30.09"   Gusts: NA
Location:  14.1°S, 50.33°W
Report Text: SBAN 230400Z 00000KT 9999 SCT025 FEW030TCU 18/17 Q1019
Loading
Personal Weather Stations






























Interactive Weather Map New forecast layout! Learn more

10-Day Weather Forecast

Advertisements
Track Severe Weather on mobile